Terminal Aerodrome Forecast
Issued by NWS Dallas/Fort Worth, TX

Home | Current Version | Previous Version | Text Only | Print | Product List | Glossary On
Versions: 1 2 3 4 5 6 7 8 9 10 11 12 13 14 15 16 17 18 19 20 21 22 23 24 25 26 27 28
536
FTUS44 KFWD 260627 AAA
TAFACT
TAF AMD
KACT 260627Z 2606/2706 18017KT P6SM BKN015
     FM260900 19015KT P6SM BKN012
     FM261700 18016KT P6SM BKN035=

USA.gov is the U.S. government's official web portal to all federal, state and local government web resources and services.